Terminal Aerodrome Forecast
Issued by NWS Mt. Holly, NJ

Home | Current Version | Previous Version | Text Only | Print | Product List | Glossary On
Versions: 1 2 3 4 5 6 7 8 9 10 11 12 13 14 15 16 17 18 19 20 21 22 23 24 25 26
000
FTAK31 PANC 190535
TAFABE
TAF
PABE 190535Z 1906/2006 04006KT P6SM -SHSN BKN025 OVC035
      TEMPO 1906/1908 SCT025
     FM190900 05008KT 4SM -SN BKN020
     FM191200 05014KT 2SM -SN BR OVC015
     FM191800 03015G23KT 3/4SM -SN BLSN BKN007
     FM200200 02020G30KT 2SM -SN BLSN SCT007 BKN020=

USA.gov is the U.S. government's official web portal to all federal, state and local government web resources and services.